createdAt,value
2016-06-04T00:00:10.433Z,0
2016-06-04T00:01:10.575Z,0
2016-06-04T00:02:10.594Z,0
2016-06-04T00:03:10.596Z,0
2016-06-04T00:04:10.459Z,0
2016-06-04T00:05:10.618Z,0
2016-06-04T00:06:10.652Z,0
2016-06-04T00:07:10.624Z,0
2016-06-04T00:08:10.626Z,0
2016-06-04T00:09:10.629Z,0
2016-06-04T00:10:10.632Z,0
2016-06-04T00:11:11.384Z,0
2016-06-04T00:12:10.651Z,0
2016-06-04T00:13:10.655Z,0
2016-06-04T00:14:10.657Z,0
2016-06-04T00:15:10.660Z,0
2016-06-04T00:16:10.662Z,0
2016-06-04T00:17:10.525Z,0
2016-06-04T00:18:10.684Z,0
2016-06-04T00:19:10.545Z,0
2016-06-04T00:20:10.690Z,0
2016-06-04T00:21:10.707Z,0
2016-06-04T00:22:10.570Z,0
2016-06-04T00:23:10.728Z,0
2016-06-04T00:24:10.731Z,0
2016-06-04T00:25:10.734Z,0
2016-06-04T00:26:10.940Z,0
2016-06-04T00:27:10.755Z,0
2016-06-04T00:28:10.741Z,0
2016-06-04T00:29:10.761Z,0
2016-06-04T00:30:10.763Z,0
2016-06-04T00:31:10.813Z,0
2016-06-04T00:32:10.768Z,0
2016-06-04T00:33:10.771Z,0
2016-06-04T00:34:10.774Z,0
2016-06-04T00:35:10.792Z,0
2016-06-04T00:36:10.794Z,0
2016-06-04T00:37:10.797Z,0
2016-06-04T00:38:10.816Z,0
2016-06-04T00:39:10.819Z,0
2016-06-04T00:40:10.837Z,0
2016-06-04T00:41:10.668Z,0
2016-06-04T00:42:10.827Z,0
2016-06-04T00:43:10.860Z,0
2016-06-04T00:44:10.848Z,0
2016-06-04T00:45:10.850Z,0
2016-06-04T00:46:10.869Z,0
2016-06-04T00:47:10.856Z,0
2016-06-04T00:48:10.874Z,0
2016-06-04T00:49:10.861Z,0
2016-06-04T00:50:10.879Z,0
2016-06-04T00:51:10.882Z,0
2016-06-04T00:52:10.744Z,0
2016-06-04T00:53:10.904Z,0
2016-06-04T00:54:10.906Z,0
2016-06-04T00:55:11.220Z,0
2016-06-04T00:56:11.551Z,0
2016-06-04T00:57:10.929Z,0
2016-06-04T00:58:10.917Z,0
2016-06-04T00:59:10.946Z,0
2016-06-04T01:00:10.983Z,0
2016-06-04T01:01:11.018Z,0
2016-06-04T01:02:11.071Z,0
2016-06-04T01:03:11.107Z,0
2016-06-04T01:04:11.135Z,0
2016-06-04T01:05:11.166Z,0
2016-06-04T01:06:11.024Z,0
2016-06-04T01:07:11.210Z,0
2016-06-04T01:08:11.225Z,0
2016-06-04T01:09:11.236Z,0
2016-06-04T01:10:11.228Z,0
2016-06-04T01:11:11.266Z,0
2016-06-04T01:12:11.257Z,0
2016-06-04T01:13:11.280Z,0
2016-06-04T01:14:11.270Z,0
2016-06-04T01:15:11.290Z,0
2016-06-04T01:16:11.310Z,0
2016-06-04T01:17:11.298Z,0
2016-06-04T01:18:11.303Z,0
2016-06-04T01:19:11.322Z,0
2016-06-04T01:20:11.309Z,0
2016-06-04T01:21:11.329Z,0
2016-06-04T01:22:11.332Z,0
2016-06-04T01:23:11.335Z,0
2016-06-04T01:24:11.353Z,0
2016-06-04T01:25:11.356Z,0
2016-06-04T01:26:11.390Z,0
2016-06-04T01:27:11.222Z,0
2016-06-04T01:28:11.365Z,0
2016-06-04T01:29:11.368Z,0
2016-06-04T01:30:11.387Z,0
2016-06-04T01:31:11.390Z,0
2016-06-04T01:32:11.407Z,0
2016-06-04T01:33:11.410Z,0
2016-06-04T01:34:11.412Z,0
2016-06-04T01:35:11.463Z,0
2016-06-04T01:36:11.465Z,0
2016-06-04T01:37:11.437Z,0
2016-06-04T01:38:11.440Z,0
2016-06-04T01:39:11.458Z,0
2016-06-04T01:40:11.445Z,0
2016-06-04T01:41:12.073Z,0
2016-06-04T01:42:11.450Z,0
2016-06-04T01:43:11.469Z,0
2016-06-04T01:44:11.456Z,0
2016-06-04T01:45:11.474Z,0
2016-06-04T01:46:11.492Z,0
2016-06-04T01:47:11.495Z,0
2016-06-04T01:48:11.498Z,0
2016-06-04T01:49:11.500Z,0
2016-06-04T01:50:11.519Z,0
2016-06-04T01:51:11.521Z,0
2016-06-04T01:52:11.524Z,0
2016-06-04T01:53:11.527Z,0
2016-06-04T01:54:11.529Z,0
2016-06-04T01:55:11.829Z,0
2016-06-04T01:56:11.347Z,0
2016-06-04T01:57:11.554Z,0
2016-06-04T01:58:11.557Z,0
2016-06-04T01:59:11.574Z,0
2016-06-04T02:00:11.561Z,0
2016-06-04T02:01:11.565Z,0
2016-06-04T02:02:11.567Z,0
2016-06-04T02:03:11.584Z,0
2016-06-04T02:04:11.588Z,0
2016-06-04T02:05:11.606Z,0
2016-06-04T02:06:11.592Z,0
2016-06-04T02:07:11.596Z,0
2016-06-04T02:08:11.614Z,0
2016-06-04T02:09:11.616Z,0
2016-06-04T02:10:11.635Z,0
2016-06-04T02:11:11.670Z,0
2016-06-04T02:12:11.639Z,0
2016-06-04T02:13:11.643Z,0
2016-06-04T02:14:11.645Z,0
2016-06-04T02:15:11.648Z,0
2016-06-04T02:16:11.650Z,0
2016-06-04T02:17:11.653Z,0
2016-06-04T02:18:11.688Z,0
2016-06-04T02:19:11.519Z,0
2016-06-04T02:20:11.693Z,0
2016-06-04T02:21:11.696Z,0
2016-06-04T02:22:11.714Z,0
2016-06-04T02:23:11.702Z,0
2016-06-04T02:24:11.705Z,0
2016-06-04T02:25:11.566Z,0
2016-06-04T02:26:11.599Z,0
2016-06-04T02:27:11.727Z,0
2016-06-04T02:28:11.730Z,0
2016-06-04T02:29:11.732Z,0
2016-06-04T02:30:11.751Z,0
2016-06-04T02:31:11.754Z,0
2016-06-04T02:32:11.773Z,0
2016-06-04T02:33:11.775Z,0
2016-06-04T02:34:11.793Z,0
2016-06-04T02:35:11.781Z,0
2016-06-04T02:36:11.784Z,0
2016-06-04T02:37:11.629Z,0
2016-06-04T02:38:11.788Z,0
2016-06-04T02:39:11.792Z,0
2016-06-04T02:40:11.794Z,0
2016-06-04T02:41:12.640Z,0
2016-06-04T02:42:11.831Z,0
2016-06-04T02:43:11.833Z,0
2016-06-04T02:44:11.836Z,0
2016-06-04T02:45:11.839Z,0
2016-06-04T02:46:11.841Z,0
2016-06-04T02:47:11.844Z,0
2016-06-04T02:48:11.690Z,0
2016-06-04T02:49:11.849Z,0
2016-06-04T02:50:11.867Z,0
2016-06-04T02:51:11.870Z,0
2016-06-04T02:52:11.872Z,0
2016-06-04T02:53:11.907Z,0
2016-06-04T02:54:11.894Z,4
2016-06-04T02:55:11.897Z,4
2016-06-04T02:56:12.087Z,4
2016-06-04T02:57:11.949Z,0
2016-06-04T02:58:11.935Z,0
2016-06-04T02:59:11.923Z,4
2016-06-04T03:00:11.926Z,4
2016-06-04T03:01:11.944Z,4
2016-06-04T03:02:11.931Z,0
2016-06-04T03:03:11.949Z,4
2016-06-04T03:04:11.952Z,4
2016-06-04T03:05:11.955Z,4
2016-06-04T03:06:11.973Z,4
2016-06-04T03:07:11.976Z,8
2016-06-04T03:08:11.979Z,8
2016-06-04T03:09:11.997Z,4
2016-06-04T03:10:12.000Z,8
2016-06-04T03:11:12.267Z,8
2016-06-04T03:12:12.005Z,8
2016-06-04T03:13:12.008Z,8
2016-06-04T03:14:12.026Z,12
2016-06-04T03:15:12.013Z,12
2016-06-04T03:16:12.016Z,12
2016-06-04T03:17:12.019Z,12
2016-06-04T03:18:12.052Z,12
2016-06-04T03:19:12.056Z,12
2016-06-04T03:20:12.058Z,20
2016-06-04T03:21:12.060Z,20
2016-06-04T03:22:12.236Z,24
2016-06-04T03:23:12.081Z,28
2016-06-04T03:24:12.084Z,28
2016-06-04T03:25:12.102Z,28
2016-06-04T03:26:13.152Z,28
2016-06-04T03:27:12.092Z,28
2016-06-04T03:28:12.095Z,28
2016-06-04T03:29:12.129Z,28
2016-06-04T03:30:12.132Z,32
2016-06-04T03:31:12.135Z,32
2016-06-04T03:32:12.138Z,36
2016-06-04T03:33:12.139Z,36
2016-06-04T03:34:12.158Z,40
2016-06-04T03:35:12.145Z,40
2016-06-04T03:36:12.148Z,44
2016-06-04T03:37:12.165Z,48
2016-06-04T03:38:12.153Z,48
2016-06-04T03:39:12.156Z,48
2016-06-04T03:40:12.174Z,56
2016-06-04T03:41:12.286Z,60
2016-06-04T03:42:12.195Z,68
2016-06-04T03:43:12.197Z,72
2016-06-04T03:44:12.200Z,68
2016-06-04T03:45:12.219Z,72
2016-06-04T03:46:12.222Z,80
2016-06-04T03:47:12.225Z,84
2016-06-04T03:48:12.227Z,84
2016-06-04T03:49:12.230Z,92
2016-06-04T03:50:12.232Z,92
2016-06-04T03:51:12.235Z,100
2016-06-04T03:52:12.330Z,100
2016-06-04T03:53:12.241Z,100
2016-06-04T03:54:12.243Z,100
2016-06-04T03:55:12.261Z,100
2016-06-04T03:56:12.654Z,100
2016-06-04T03:57:12.329Z,96
2016-06-04T03:58:12.316Z,100
2016-06-04T03:59:12.288Z,96
2016-06-04T04:00:12.337Z,96
2016-06-04T04:01:12.371Z,100
2016-06-04T04:02:12.311Z,104
2016-06-04T04:03:12.314Z,104
2016-06-04T04:04:12.316Z,116
2016-06-04T04:05:12.319Z,116
2016-06-04T04:06:12.166Z,120
2016-06-04T04:07:12.340Z,128
2016-06-04T04:08:12.343Z,132
2016-06-04T04:09:12.345Z,136
2016-06-04T04:10:12.364Z,132
2016-06-04T04:11:12.242Z,132
2016-06-04T04:12:12.354Z,136
2016-06-04T04:13:12.372Z,140
2016-06-04T04:14:12.375Z,152
2016-06-04T04:15:12.378Z,160
2016-06-04T04:16:12.395Z,168
2016-06-04T04:17:12.398Z,172
2016-06-04T04:18:12.433Z,180
2016-06-04T04:19:12.419Z,184
2016-06-04T04:20:12.438Z,192
2016-06-04T04:21:12.441Z,204
2016-06-04T04:22:12.428Z,200
2016-06-04T04:23:12.430Z,212
2016-06-04T04:24:12.449Z,212
2016-06-04T04:25:12.436Z,200
2016-06-04T04:26:12.845Z,204
2016-06-04T04:27:12.472Z,204
2016-06-04T04:28:12.475Z,204
2016-06-04T04:29:12.322Z,212
2016-06-04T04:30:12.480Z,220
2016-06-04T04:31:12.482Z,240
2016-06-04T04:32:12.501Z,256
2016-06-04T04:33:12.488Z,256
2016-06-04T04:34:12.522Z,248
2016-06-04T04:35:12.509Z,248
2016-06-04T04:36:12.543Z,248
2016-06-04T04:37:12.530Z,256
2016-06-04T04:38:12.517Z,284
2016-06-04T04:39:12.536Z,328
2016-06-04T04:40:12.538Z,360
2016-06-04T04:41:12.729Z,376
2016-06-04T04:42:12.559Z,368
2016-06-04T04:43:12.578Z,380
2016-06-04T04:44:12.581Z,396
2016-06-04T04:45:12.568Z,396
2016-06-04T04:46:12.570Z,388
2016-06-04T04:47:12.573Z,404
2016-06-04T04:48:12.591Z,408
2016-06-04T04:49:12.594Z,412
2016-06-04T04:50:12.612Z,428
2016-06-04T04:51:12.647Z,456
2016-06-04T04:52:12.633Z,472
2016-06-04T04:53:12.620Z,504
2016-06-04T04:54:12.623Z,528
2016-06-04T04:55:12.626Z,556
2016-06-04T04:56:12.581Z,540
2016-06-04T04:57:12.677Z,516
2016-06-04T04:58:12.697Z,524
2016-06-04T04:59:12.652Z,508
2016-06-04T05:00:12.670Z,496
2016-06-04T05:01:12.516Z,472
2016-06-04T05:02:12.676Z,452
2016-06-04T05:03:12.679Z,476
2016-06-04T05:04:12.697Z,484
2016-06-04T05:05:12.699Z,496
2016-06-04T05:06:12.702Z,484
2016-06-04T05:07:12.721Z,468
2016-06-04T05:08:12.723Z,468
2016-06-04T05:09:12.726Z,476
2016-06-04T05:10:12.729Z,468
2016-06-04T05:11:13.496Z,452
2016-06-04T05:12:12.734Z,440
2016-06-04T05:13:12.596Z,456
2016-06-04T05:14:12.755Z,472
2016-06-04T05:15:12.773Z,480
2016-06-04T05:16:12.775Z,508
2016-06-04T05:17:12.763Z,544
2016-06-04T05:18:12.906Z,484
2016-06-04T05:19:12.784Z,468
2016-06-04T05:20:12.787Z,456
2016-06-04T05:21:12.806Z,448
2016-06-04T05:22:12.808Z,452
2016-06-04T05:23:12.794Z,468
2016-06-04T05:24:12.814Z,580
2016-06-04T05:25:12.847Z,752
2016-06-04T05:26:13.506Z,884
2016-06-04T05:27:12.836Z,916
2016-06-04T05:28:12.839Z,972
2016-06-04T05:29:12.842Z,932
2016-06-04T05:30:12.844Z,844
2016-06-04T05:31:12.863Z,864
2016-06-04T05:32:12.850Z,932
2016-06-04T05:33:12.869Z,980
2016-06-04T05:34:12.887Z,1044
2016-06-04T05:35:12.874Z,1112
2016-06-04T05:36:12.892Z,1076
2016-06-04T05:37:12.911Z,1048
2016-06-04T05:38:12.741Z,1068
2016-06-04T05:39:12.947Z,1088
2016-06-04T05:40:12.919Z,1024
2016-06-04T05:41:12.937Z,960
2016-06-04T05:42:12.924Z,924
2016-06-04T05:43:12.926Z,856
2016-06-04T05:44:12.945Z,784
2016-06-04T05:45:12.948Z,808
2016-06-04T05:46:12.950Z,812
2016-06-04T05:47:12.953Z,788
2016-06-04T05:48:12.971Z,808
2016-06-04T05:49:12.974Z,780
2016-06-04T05:50:12.976Z,816
2016-06-04T05:51:12.979Z,860
2016-06-04T05:52:12.998Z,840
2016-06-04T05:53:12.984Z,852
2016-06-04T05:54:12.987Z,908
2016-06-04T05:55:13.006Z,888
2016-06-04T05:56:13.008Z,996
2016-06-04T05:57:13.058Z,1112
2016-06-04T05:58:13.139Z,1244
2016-06-04T05:59:13.080Z,1596
2016-06-04T06:00:13.066Z,2028
2016-06-04T06:01:13.053Z,2272
2016-06-04T06:02:13.055Z,2484
2016-06-04T06:03:13.044Z,2408
2016-06-04T06:04:13.061Z,2780
2016-06-04T06:05:13.064Z,3152
2016-06-04T06:06:13.082Z,3664
2016-06-04T06:07:13.085Z,4224
2016-06-04T06:08:13.087Z,4260
2016-06-04T06:09:13.121Z,4688
2016-06-04T06:10:13.093Z,5148
2016-06-04T06:11:13.127Z,5176
2016-06-04T06:12:13.114Z,5380
2016-06-04T06:13:13.163Z,3412
2016-06-04T06:14:13.135Z,2420
2016-06-04T06:15:13.169Z,3508
2016-06-04T06:16:13.140Z,6468
2016-06-04T06:17:13.159Z,9772
2016-06-04T06:18:13.162Z,12448
2016-06-04T06:19:13.164Z,12384
2016-06-04T06:20:13.182Z,13800
2016-06-04T06:21:13.185Z,14376
2016-06-04T06:22:13.016Z,13720
2016-06-04T06:23:13.315Z,14436
2016-06-04T06:24:13.192Z,16192
2016-06-04T06:25:13.211Z,15712
2016-06-04T06:26:13.465Z,13852
2016-06-04T06:27:13.530Z,13236
2016-06-04T06:28:13.235Z,14660
2016-06-04T06:29:13.253Z,13832
2016-06-04T06:30:13.084Z,16896
2016-06-04T06:31:13.258Z,13160
2016-06-04T06:32:12.964Z,16160
2016-06-04T06:33:13.280Z,15872
2016-06-04T06:34:13.283Z,18240
2016-06-04T06:35:13.301Z,18688
2016-06-04T06:36:13.304Z,20544
2016-06-04T06:37:13.307Z,21216
2016-06-04T06:38:13.309Z,21024
2016-06-04T06:39:13.327Z,21632
2016-06-04T06:40:13.346Z,20096
2016-06-04T06:41:13.832Z,22560
2016-06-04T06:42:13.351Z,20672
2016-06-04T06:43:13.369Z,18592
2016-06-04T06:44:13.371Z,18880
2016-06-04T06:45:13.374Z,18784
2016-06-04T06:46:13.393Z,17856
2016-06-04T06:47:13.396Z,17824
2016-06-04T06:48:13.398Z,11496
2016-06-04T06:49:13.464Z,12052
2016-06-04T06:50:13.262Z,9548
2016-06-04T06:51:13.438Z,16736
2016-06-04T06:52:13.440Z,10512
2016-06-04T06:53:13.475Z,15428
2016-06-04T06:54:13.461Z,17184
2016-06-04T06:55:13.480Z,18944
2016-06-04T06:56:13.623Z,21280
2016-06-04T06:57:13.610Z,22464
2016-06-04T06:58:13.581Z,22240
2016-06-04T06:59:13.569Z,21280
2016-06-04T07:00:13.509Z,21824
2016-06-04T07:01:13.528Z,23296
2016-06-04T07:02:13.530Z,23648
2016-06-04T07:03:13.533Z,24640
2016-06-04T07:04:13.675Z,23392
2016-06-04T07:05:13.553Z,24096
2016-06-04T07:06:13.588Z,24256
2016-06-04T07:07:13.419Z,24288
2016-06-04T07:08:13.593Z,25472
2016-06-04T07:09:13.595Z,24448
2016-06-04T07:10:13.629Z,23104
2016-06-04T07:11:13.898Z,22112
2016-06-04T07:12:13.618Z,23008
2016-06-04T07:13:13.918Z,24896
2016-06-04T07:14:13.657Z,26624
2016-06-04T07:15:13.659Z,22432
2016-06-04T07:16:13.661Z,24928
2016-06-04T07:17:13.679Z,19552
2016-06-04T07:18:13.682Z,22912
2016-06-04T07:19:13.716Z,23872
2016-06-04T07:20:13.547Z,21792
2016-06-04T07:21:13.721Z,27936
2016-06-04T07:22:13.849Z,17728
2016-06-04T07:23:13.587Z,15904
2016-06-04T07:24:13.761Z,20864
2016-06-04T07:25:13.763Z,19808
2016-06-04T07:26:13.782Z,27072
2016-06-04T07:27:13.769Z,26208
2016-06-04T07:28:13.787Z,15424
2016-06-04T07:29:13.806Z,10632
2016-06-04T07:30:13.808Z,19072
2016-06-04T07:31:13.827Z,26880
2016-06-04T07:32:13.844Z,25952
2016-06-04T07:33:13.832Z,17856
2016-06-04T07:34:13.835Z,22752
2016-06-04T07:35:13.869Z,22336
2016-06-04T07:36:13.871Z,16128
2016-06-04T07:37:13.733Z,8756
2016-06-04T07:38:13.877Z,6100
2016-06-04T07:39:13.911Z,6128
2016-06-04T07:40:13.897Z,5816
2016-06-04T07:41:14.088Z,4952
2016-06-04T07:42:13.919Z,4600
2016-06-04T07:43:13.953Z,3696
2016-06-04T07:44:13.955Z,3584
2016-06-04T07:45:13.989Z,3184
2016-06-04T07:46:13.960Z,3156
2016-06-04T07:47:14.104Z,3072
2016-06-04T07:48:13.966Z,3304
2016-06-04T07:49:13.984Z,3552
2016-06-04T07:50:13.987Z,3900
2016-06-04T07:51:14.006Z,4648
2016-06-04T07:52:14.008Z,4196
2016-06-04T07:53:14.011Z,4648
2016-06-04T07:54:14.044Z,4612
2016-06-04T07:55:14.032Z,4260
2016-06-04T07:56:14.065Z,4484
2016-06-04T07:57:14.615Z,3712
2016-06-04T07:58:14.165Z,4232
2016-06-04T07:59:14.058Z,4656
2016-06-04T08:00:14.076Z,4996
2016-06-04T08:01:14.173Z,4716
2016-06-04T08:02:14.097Z,3880
2016-06-04T08:03:14.100Z,4872
2016-06-04T08:04:14.103Z,3856
2016-06-04T08:05:14.121Z,3668
2016-06-04T08:06:14.124Z,4268
2016-06-04T08:07:14.158Z,4224
2016-06-04T08:08:14.145Z,3720
2016-06-04T08:09:14.147Z,3512
2016-06-04T08:10:14.150Z,3636
2016-06-04T08:11:14.152Z,3564
2016-06-04T08:12:16.733Z,3312
2016-06-04T08:13:14.893Z,3448
2016-06-04T08:14:14.192Z,3352
2016-06-04T08:15:14.196Z,3280
2016-06-04T08:16:14.229Z,3204
2016-06-04T08:17:14.216Z,3164
2016-06-04T08:18:14.218Z,3140
2016-06-04T08:19:14.221Z,3100
2016-06-04T08:20:14.240Z,3052
2016-06-04T08:21:14.226Z,3016
2016-06-04T08:22:14.245Z,2968
2016-06-04T08:23:14.247Z,2968
2016-06-04T08:24:14.266Z,2920
2016-06-04T08:25:14.268Z,2892
2016-06-04T08:26:14.303Z,2868
2016-06-04T08:27:14.290Z,2800
2016-06-04T08:28:14.308Z,2752
2016-06-04T08:29:14.295Z,2756
2016-06-04T08:30:14.297Z,2724
2016-06-04T08:31:14.316Z,2708
2016-06-04T08:32:14.334Z,2696
2016-06-04T08:33:14.336Z,2736
2016-06-04T08:34:14.356Z,2732
2016-06-04T08:35:14.358Z,2740
2016-06-04T08:36:14.579Z,2664
2016-06-04T08:37:14.394Z,2576
2016-06-04T08:38:15.225Z,2672
2016-06-04T08:39:17.759Z,2668
2016-06-04T08:40:14.402Z,2688
2016-06-04T08:41:14.405Z,2700
2016-06-04T08:42:14.938Z,2676
2016-06-04T08:43:14.441Z,2764
2016-06-04T08:44:14.430Z,2728
2016-06-04T08:45:14.432Z,2716
2016-06-04T08:46:14.419Z,2712
2016-06-04T08:47:14.452Z,2808
2016-06-04T08:48:14.455Z,2912
2016-06-04T08:49:14.458Z,2888
2016-06-04T08:50:14.476Z,2916
2016-06-04T08:51:14.323Z,2876
2016-06-04T08:52:14.466Z,2924
2016-06-04T08:53:14.484Z,2928
2016-06-04T08:54:14.331Z,2936
2016-06-04T08:55:14.521Z,2896
2016-06-04T08:56:14.508Z,2872
2016-06-04T08:57:14.511Z,2852
2016-06-04T08:58:14.545Z,2824
2016-06-04T08:59:15.172Z,2812
2016-06-04T09:00:14.534Z,2812
2016-06-04T09:01:14.397Z,2844
2016-06-04T09:02:14.775Z,2860
2016-06-04T09:03:14.558Z,2864
2016-06-04T09:04:14.561Z,2812
2016-06-04T09:05:14.580Z,2796
2016-06-04T09:06:14.598Z,2776
2016-06-04T09:07:14.616Z,2792
2016-06-04T09:08:14.603Z,2824
2016-06-04T09:09:14.606Z,2764
2016-06-04T09:10:14.624Z,2828
2016-06-04T09:11:14.627Z,2824
2016-06-04T09:12:14.645Z,2844
2016-06-04T09:13:15.116Z,2892
2016-06-04T09:14:14.635Z,2928
2016-06-04T09:15:14.652Z,2956
2016-06-04T09:16:14.656Z,2848
2016-06-04T09:17:14.518Z,2752
2016-06-04T09:18:14.676Z,2664
2016-06-04T09:19:14.680Z,2684
2016-06-04T09:20:14.682Z,2652
2016-06-04T09:21:14.701Z,2608
2016-06-04T09:22:14.547Z,2620
2016-06-04T09:23:14.706Z,2660
2016-06-04T09:24:14.724Z,2648
2016-06-04T09:25:14.727Z,2604
2016-06-04T09:26:14.745Z,2604
2016-06-04T09:27:14.779Z,2600
2016-06-04T09:28:14.875Z,2600
2016-06-04T09:29:16.223Z,2540
2016-06-04T09:30:14.615Z,2556
2016-06-04T09:31:14.774Z,2548
2016-06-04T09:32:14.620Z,2500
2016-06-04T09:33:14.796Z,2504
2016-06-04T09:34:14.798Z,2456
2016-06-04T09:35:14.645Z,2404
2016-06-04T09:36:14.803Z,2384
2016-06-04T09:37:14.822Z,2376
2016-06-04T09:38:14.825Z,2404
2016-06-04T09:39:14.686Z,2400
2016-06-04T09:40:14.845Z,2404
2016-06-04T09:41:14.848Z,2392
2016-06-04T09:42:14.695Z,2384
2016-06-04T09:43:14.947Z,2384
2016-06-04T09:44:14.903Z,2388
2016-06-04T09:45:14.874Z,2356
2016-06-04T09:46:14.893Z,2360
2016-06-04T09:47:14.583Z,2312
2016-06-04T09:48:14.757Z,2344
2016-06-04T09:49:14.932Z,2328
2016-06-04T09:50:14.919Z,2312
2016-06-04T09:51:14.922Z,2288
2016-06-04T09:52:14.956Z,2276
2016-06-04T09:53:14.942Z,2236
2016-06-04T09:54:14.962Z,2224
2016-06-04T09:55:14.964Z,2232
2016-06-04T09:56:14.967Z,2256
2016-06-04T09:57:14.812Z,2252
2016-06-04T09:58:15.035Z,2284
2016-06-04T09:59:15.131Z,2236
2016-06-04T10:00:15.040Z,2180
2016-06-04T10:01:17.511Z,2156
2016-06-04T10:02:15.014Z,2144
2016-06-04T10:03:14.861Z,2096
2016-06-04T10:04:15.082Z,2088
2016-06-04T10:05:15.054Z,2124
2016-06-04T10:06:17.585Z,2136
2016-06-04T10:07:15.131Z,2132
2016-06-04T10:08:15.162Z,2160
2016-06-04T10:09:15.176Z,2112
2016-06-04T10:10:15.227Z,2156
2016-06-04T10:11:15.287Z,2220
2016-06-04T10:12:15.253Z,2268
2016-06-04T10:13:15.406Z,2260
2016-06-04T10:14:15.293Z,2200
2016-06-04T10:15:15.302Z,2140
2016-06-04T10:16:19.355Z,2100
2016-06-04T10:17:15.329Z,2088
2016-06-04T10:18:15.335Z,2148
2016-06-04T10:19:15.373Z,2200
2016-06-04T10:20:15.222Z,2172
2016-06-04T10:21:15.226Z,2152
2016-06-04T10:22:15.371Z,2152
2016-06-04T10:23:15.109Z,2180
2016-06-04T10:24:15.395Z,2196
2016-06-04T10:25:15.414Z,2196
2016-06-04T10:26:15.401Z,2196
2016-06-04T10:27:15.436Z,2252
2016-06-04T10:28:15.423Z,2208
2016-06-04T10:29:15.661Z,2176
2016-06-04T10:30:15.288Z,2168
2016-06-04T10:31:15.447Z,1512
2016-06-04T10:32:15.450Z,2316
2016-06-04T10:33:15.468Z,2316
2016-06-04T10:34:15.455Z,2372
2016-06-04T10:35:15.474Z,2348
2016-06-04T10:36:15.492Z,2344
2016-06-04T10:37:15.495Z,1840
2016-06-04T10:38:15.498Z,2432
2016-06-04T10:39:15.532Z,2332
2016-06-04T10:40:15.503Z,2176
2016-06-04T10:41:15.521Z,2020
2016-06-04T10:42:15.540Z,1264
2016-06-04T10:43:17.715Z,1312
2016-06-04T10:44:15.889Z,1472
2016-06-04T10:45:15.548Z,2204
2016-06-04T10:46:15.566Z,2204
2016-06-04T10:47:15.585Z,2308
2016-06-04T10:48:15.572Z,2284
2016-06-04T10:49:15.605Z,2220
2016-06-04T10:50:15.436Z,2284
2016-06-04T10:51:15.595Z,2356
2016-06-04T10:52:15.598Z,2216
2016-06-04T10:53:15.616Z,2188
2016-06-04T10:54:15.634Z,2164
2016-06-04T10:55:15.480Z,2064
2016-06-04T10:56:15.483Z,2256
2016-06-04T10:57:16.908Z,1548
2016-06-04T10:58:17.441Z,1512
2016-06-04T10:59:15.648Z,1644
2016-06-04T11:00:15.666Z,1800
2016-06-04T11:01:15.669Z,2164
2016-06-04T11:02:15.688Z,1668
2016-06-04T11:03:15.738Z,2172
2016-06-04T11:04:15.849Z,1456
2016-06-04T11:05:15.696Z,2080
2016-06-04T11:06:15.713Z,2044
2016-06-04T11:07:15.716Z,2012
2016-06-04T11:08:15.782Z,1580
2016-06-04T11:09:15.737Z,2204
2016-06-04T11:10:15.756Z,2112
2016-06-04T11:11:15.742Z,2048
2016-06-04T11:12:15.762Z,1408
2016-06-04T11:13:16.248Z,1808
2016-06-04T11:14:15.892Z,2044
2016-06-04T11:15:15.785Z,2136
2016-06-04T11:16:15.788Z,2088
2016-06-04T11:17:15.790Z,2060
2016-06-04T11:18:15.809Z,2040
2016-06-04T11:19:15.812Z,2020
2016-06-04T11:20:15.829Z,2092
2016-06-04T11:21:15.676Z,1444
2016-06-04T11:22:15.819Z,1508
2016-06-04T11:23:15.837Z,2292
2016-06-04T11:24:15.840Z,2196
2016-06-04T11:25:15.859Z,1484
2016-06-04T11:26:15.861Z,2056
2016-06-04T11:27:15.911Z,2076
2016-06-04T11:28:15.601Z,2012
2016-06-04T11:29:15.901Z,1552
2016-06-04T11:30:15.903Z,1560
2016-06-04T11:31:16.078Z,2236
2016-06-04T11:32:15.908Z,1692
2016-06-04T11:33:15.911Z,1740
2016-06-04T11:34:15.930Z,2212
2016-06-04T11:35:15.949Z,2176
2016-06-04T11:36:15.779Z,2096
2016-06-04T11:37:15.953Z,1572
2016-06-04T11:38:15.957Z,1676
2016-06-04T11:39:15.959Z,2136
2016-06-04T11:40:15.962Z,2292
2016-06-04T11:41:15.979Z,2228
2016-06-04T11:42:16.013Z,2192
2016-06-04T11:43:16.015Z,2076
2016-06-04T11:44:16.004Z,1724
2016-06-04T11:45:16.006Z,1716
2016-06-04T11:46:16.023Z,2176
2016-06-04T11:47:16.012Z,2204
2016-06-04T11:48:16.030Z,2052
2016-06-04T11:49:16.032Z,1952
2016-06-04T11:50:16.082Z,2120
2016-06-04T11:51:15.898Z,2012
2016-06-04T11:52:16.056Z,2084
2016-06-04T11:53:16.075Z,2008
2016-06-04T11:54:16.078Z,1884
2016-06-04T11:55:16.095Z,1784
2016-06-04T11:56:16.644Z,1900
2016-06-04T11:57:16.445Z,1696
2016-06-04T11:58:16.103Z,1652
2016-06-04T11:59:16.122Z,1636
2016-06-04T12:00:16.125Z,1464
2016-06-04T12:01:16.143Z,1752
2016-06-04T12:02:16.130Z,1796
2016-06-04T12:03:15.976Z,1832
2016-06-04T12:04:16.152Z,1856
2016-06-04T12:05:15.997Z,1848
2016-06-04T12:06:16.172Z,1828
2016-06-04T12:07:16.174Z,1792
2016-06-04T12:08:16.209Z,1832
2016-06-04T12:09:16.196Z,1888
2016-06-04T12:10:16.199Z,1992
2016-06-04T12:11:16.529Z,2068
2016-06-04T12:12:16.235Z,2028
2016-06-04T12:13:16.222Z,1988
2016-06-04T12:14:16.224Z,2020
2016-06-04T12:15:16.274Z,1976
2016-06-04T12:16:16.230Z,1968
2016-06-04T12:17:16.248Z,1864
2016-06-04T12:18:16.251Z,1984
2016-06-04T12:19:16.270Z,1988
2016-06-04T12:20:16.288Z,2000
2016-06-04T12:21:16.290Z,1932
2016-06-04T12:22:16.309Z,1852
2016-06-04T12:23:16.311Z,1852
2016-06-04T12:24:16.314Z,1884
2016-06-04T12:25:16.317Z,1828
2016-06-04T12:26:16.319Z,1784
2016-06-04T12:27:16.323Z,1696
2016-06-04T12:28:16.653Z,1636
2016-06-04T12:29:16.359Z,1636
2016-06-04T12:30:16.361Z,1560
2016-06-04T12:31:16.349Z,1484
2016-06-04T12:32:16.367Z,1456
2016-06-04T12:33:16.369Z,1284
2016-06-04T12:34:16.372Z,1420
2016-06-04T12:35:16.391Z,1460
2016-06-04T12:36:16.394Z,1440
2016-06-04T12:37:16.411Z,1472
2016-06-04T12:38:16.399Z,1488
2016-06-04T12:39:16.417Z,1532
2016-06-04T12:40:16.279Z,1552
2016-06-04T12:41:16.438Z,1596
2016-06-04T12:42:16.957Z,1600
2016-06-04T12:43:16.459Z,1596
2016-06-04T12:44:16.462Z,1552
2016-06-04T12:45:16.464Z,1480
2016-06-04T12:46:16.468Z,1492
2016-06-04T12:47:16.485Z,1512
2016-06-04T12:48:16.488Z,1556
2016-06-04T12:49:16.522Z,1560
2016-06-04T12:50:16.509Z,1484
2016-06-04T12:51:16.512Z,1320
2016-06-04T12:52:16.514Z,1388
2016-06-04T12:53:16.517Z,1596
2016-06-04T12:54:16.536Z,1536
2016-06-04T12:55:16.539Z,1528
2016-06-04T12:56:17.134Z,1388
2016-06-04T12:57:16.403Z,1484
2016-06-04T12:58:16.562Z,1456
2016-06-04T12:59:16.564Z,1428
2016-06-04T13:00:16.583Z,1420
2016-06-04T13:01:16.586Z,1408
2016-06-04T13:02:18.354Z,1428
2016-06-04T13:03:16.606Z,1420
2016-06-04T13:04:16.609Z,1384
2016-06-04T13:05:16.659Z,1320
2016-06-04T13:06:16.614Z,1376
2016-06-04T13:07:18.008Z,1480
2016-06-04T13:08:16.635Z,1416
2016-06-04T13:09:16.638Z,1380
2016-06-04T13:10:16.657Z,1356
2016-06-04T13:11:16.660Z,1236
2016-06-04T13:12:18.178Z,1304
2016-06-04T13:13:17.493Z,1252
2016-06-04T13:14:17.432Z,1184
2016-06-04T13:15:16.686Z,1140
2016-06-04T13:16:16.688Z,1148
2016-06-04T13:17:18.441Z,1140
2016-06-04T13:18:16.710Z,1152
2016-06-04T13:19:16.743Z,1136
2016-06-04T13:20:16.730Z,1092
2016-06-04T13:21:16.730Z,1056
2016-06-04T13:22:18.267Z,1000
2016-06-04T13:23:16.736Z,948
2016-06-04T13:24:16.754Z,920
2016-06-04T13:25:16.756Z,908
2016-06-04T13:26:17.934Z,892
2016-06-04T13:27:19.765Z,876
2016-06-04T13:28:16.781Z,864
2016-06-04T13:29:16.783Z,836
2016-06-04T13:30:16.801Z,796
2016-06-04T13:31:16.820Z,764
2016-06-04T13:32:16.542Z,752
2016-06-04T13:33:16.825Z,788
2016-06-04T13:34:16.812Z,840
2016-06-04T13:35:16.831Z,868
2016-06-04T13:36:16.833Z,884
2016-06-04T13:37:19.480Z,888
2016-06-04T13:38:16.855Z,864
2016-06-04T13:39:16.858Z,856
2016-06-04T13:40:16.860Z,836
2016-06-04T13:41:16.877Z,792
2016-06-04T13:42:18.305Z,740